KSSF - San Antonio/Stinson, TX, US

Issued at 2320 UTC 14 Aug 2020
Updated at 0129 UTC 15 Aug 2020
Potential Impact None Slight Moderate High
Time0053Z 15/02Z 15/03Z 15/04Z 15/05Z 15/06Z 15/07Z 15/08Z 15/09Z 15/10Z 15/11Z 15/12Z 15/13Z 15/14Z>>
Type OBS PRVL PRVL PRVL PRVL PRVL PRVL PRVL PRVL PRVL PRVL PRVL PRVL PRVL
VIS 10 >6 >6 >6 >6 >6 >6 >6 >6 >6 >6 >6 >6 >6
CIG -- -- -- -- -- -- -- -- -- -- -- -- -- --
Cover CLR SKC SKC SKC SKC SKC SKC SKC SCT SCT SCT SCT SCT SCT
FltCat VFR VFR VFR VFR VFR VFR VFR VFR VFR VFR VFR VFR VFR VFR
WX -- -- -- -- -- -- -- -- -- -- -- -- -- --
WDir 150 160 160 160 160 160 160 160 180 180 180 180 180 180
WSpd 9 10 10 10 10 10 10 10 3 3 3 3 3 3
WGst -- -- -- -- -- -- -- -- -- -- -- -- -- --
Raw TAF
KSSF 142320Z 1500/1524 16010KT P6SM SKC
  FM150900 18003KT P6SM SCT015
  FM151500 21007KT P6SM SKC


Raw METAR
KSSF 150053Z 15009KT 10SM CLR 35/15 A2982 RMK AO2 SLP083 T03500150 $
KSSF 142353Z 14009KT 10SM CLR 38/14 A2981 RMK AO2 SLP079 T03780139 10394 20344 56013 $
KSSF 142253Z 16011G17KT 10SM CLR 38/13 A2982 RMK AO2 SLP082 T03830128 $

METAR Board
Radar Display
Forecast Discussion
For situational awareness. Not to be used for flight planning purposes.